createdAt,value
2022-11-05T00:00:14.996Z,100574.34
2022-11-05T00:03:00.327Z,100580.31
2022-11-05T00:05:57.599Z,100583.78
2022-11-05T00:08:44.139Z,100580.31
2022-11-05T00:11:16.861Z,100587.91
2022-11-05T00:14:11.639Z,100594.00
2022-11-05T00:16:44.697Z,100587.78
2022-11-05T00:19:13.489Z,100591.19
2022-11-05T00:21:58.655Z,100591.28
2022-11-05T00:24:45.379Z,100593.16
2022-11-05T00:27:12.932Z,100594.78
2022-11-05T00:29:40.351Z,100593.09
2022-11-05T00:32:07.898Z,100599.09
2022-11-05T00:34:35.512Z,100596.50
2022-11-05T00:37:03.014Z,100599.94
2022-11-05T00:39:31.960Z,100598.94
2022-11-05T00:42:17.021Z,100600.75
2022-11-05T00:45:02.509Z,100595.59
2022-11-05T00:47:48.271Z,100612.53
2022-11-05T00:50:16.540Z,100609.31
2022-11-05T00:52:59.688Z,100605.97
2022-11-05T00:55:33.453Z,100616.34
2022-11-05T00:58:03.865Z,100617.22
2022-11-05T01:00:32.386Z,100629.31
2022-11-05T01:03:01.663Z,100621.63
2022-11-05T01:05:30.447Z,100629.13
2022-11-05T01:07:58.044Z,100628.38
2022-11-05T01:10:26.078Z,100630.19
2022-11-05T01:12:55.223Z,100631.94
2022-11-05T01:15:23.167Z,100641.44
2022-11-05T01:17:51.581Z,100642.25
2022-11-05T01:20:19.414Z,100638.88
2022-11-05T01:22:47.116Z,100644.09
2022-11-05T01:25:14.614Z,100646.53
2022-11-05T01:27:42.134Z,100653.44
2022-11-05T01:30:12.724Z,100652.47
2022-11-05T01:32:40.307Z,100651.59
2022-11-05T01:35:11.146Z,100651.66
2022-11-05T01:37:39.733Z,100653.09
2022-11-05T01:40:08.993Z,100648.22
2022-11-05T01:42:36.615Z,100654.22
2022-11-05T01:45:12.858Z,100652.47
2022-11-05T01:47:51.989Z,100649.88
2022-11-05T01:50:31.878Z,100652.47
2022-11-05T01:53:06.389Z,100650.72
2022-11-05T01:55:37.724Z,100650.84
2022-11-05T01:58:08.537Z,100660.31
2022-11-05T02:00:36.722Z,100667.00
2022-11-05T02:03:05.784Z,100663.66
2022-11-05T02:05:34.741Z,100674.72
2022-11-05T02:08:03.253Z,100677.19
2022-11-05T02:10:30.913Z,100689.19
2022-11-05T02:12:58.359Z,100679.69
2022-11-05T02:15:36.368Z,100687.31
2022-11-05T02:18:16.026Z,100699.28
2022-11-05T02:20:52.355Z,100697.50
2022-11-05T02:23:54.521Z,100698.66
2022-11-05T02:26:55.590Z,100693.53
2022-11-05T02:30:03.446Z,100695.53
2022-11-05T02:32:45.803Z,100706.66
2022-11-05T02:35:23.600Z,100707.53
2022-11-05T02:37:54.487Z,100711.03
2022-11-05T02:40:28.592Z,100710.72
2022-11-05T02:43:02.500Z,100708.22
2022-11-05T02:45:43.596Z,100716.63
2022-11-05T02:48:22.381Z,100713.91
2022-11-05T02:50:56.937Z,100720.75
2022-11-05T02:53:31.842Z,100720.94
2022-11-05T02:56:04.757Z,100721.84
2022-11-05T02:58:35.024Z,100717.69
2022-11-05T03:01:06.784Z,100723.44
2022-11-05T03:03:38.856Z,100734.56
2022-11-05T03:06:24.877Z,100736.34
2022-11-05T03:09:18.280Z,100743.28
2022-11-05T03:11:59.292Z,100740.59
2022-11-05T03:14:38.499Z,100743.47
2022-11-05T03:17:19.915Z,100746.06
2022-11-05T03:19:54.670Z,100752.00
2022-11-05T03:22:27.025Z,100757.22
2022-11-05T03:24:58.689Z,100756.06
2022-11-05T03:27:31.151Z,100753.53
2022-11-05T03:30:02.060Z,100754.56
2022-11-05T03:32:34.379Z,100762.34
2022-11-05T03:35:07.894Z,100761.59
2022-11-05T03:37:40.262Z,100762.41
2022-11-05T03:40:11.099Z,100772.53
2022-11-05T03:42:41.978Z,100778.53
2022-11-05T03:45:15.709Z,100785.44
2022-11-05T03:47:45.975Z,100786.47
2022-11-05T03:50:21.321Z,100787.19
2022-11-05T03:52:53.559Z,100788.13
2022-11-05T03:55:25.608Z,100789.56
2022-11-05T03:57:56.807Z,100793.44
2022-11-05T04:00:24.670Z,100794.97
2022-11-05T04:02:52.538Z,100792.31
2022-11-05T04:05:21.427Z,100806.97
2022-11-05T04:08:20.675Z,100804.00
2022-11-05T04:11:05.482Z,100818.97
2022-11-05T04:13:34.131Z,100813.00
2022-11-05T04:16:19.382Z,100818.19
2022-11-05T04:18:46.876Z,100819.22
2022-11-05T04:21:33.157Z,100822.81
2022-11-05T04:24:09.293Z,100825.22
2022-11-05T04:26:37.706Z,100830.75
2022-11-05T04:29:23.361Z,100836.75
2022-11-05T04:31:50.826Z,100837.06
2022-11-05T04:34:18.877Z,100840.44
2022-11-05T04:36:49.708Z,100840.50
2022-11-05T04:39:21.415Z,100841.38
2022-11-05T04:41:49.370Z,100845.94
2022-11-05T04:44:19.376Z,100841.66
2022-11-05T04:46:46.889Z,100844.94
2022-11-05T04:49:14.303Z,100852.66
2022-11-05T04:51:41.795Z,100840.34
2022-11-05T04:54:10.565Z,100848.38
2022-11-05T04:56:38.098Z,100848.41
2022-11-05T04:59:05.533Z,100850.72
2022-11-05T05:01:33.138Z,100855.03
2022-11-05T05:04:00.651Z,100849.84
2022-11-05T05:06:28.196Z,100842.41
2022-11-05T05:08:55.607Z,100843.31
2022-11-05T05:11:35.269Z,100847.84
2022-11-05T05:14:02.754Z,100855.97
2022-11-05T05:16:30.190Z,100855.84
2022-11-05T05:18:57.741Z,100854.19
2022-11-05T05:21:39.427Z,100858.28
2022-11-05T05:24:09.098Z,100858.94
2022-11-05T05:26:38.533Z,100873.75
2022-11-05T05:29:06.806Z,100866.25
2022-11-05T05:31:35.056Z,100880.50
2022-11-05T05:34:02.562Z,100881.34
2022-11-05T05:36:30.004Z,100875.81
2022-11-05T05:38:57.648Z,100884.50
2022-11-05T05:41:25.705Z,100893.88
2022-11-05T05:43:54.458Z,100891.41
2022-11-05T05:46:21.935Z,100895.97
2022-11-05T05:48:50.869Z,100894.44
2022-11-05T05:51:19.476Z,100904.44
2022-11-05T05:53:47.273Z,100904.75
2022-11-05T05:56:19.138Z,100906.47
2022-11-05T05:58:46.559Z,100902.13
2022-11-05T06:01:19.369Z,100896.16
2022-11-05T06:03:48.184Z,100909.91
2022-11-05T06:06:19.638Z,100924.31
2022-11-05T06:08:47.455Z,100929.41
2022-11-05T06:11:14.968Z,100932.06
2022-11-05T06:13:42.392Z,100939.06
2022-11-05T06:16:10.667Z,100940.78
2022-11-05T06:18:39.405Z,100951.16
2022-11-05T06:21:08.958Z,100953.91
2022-11-05T06:23:37.778Z,100958.19
2022-11-05T06:26:07.632Z,100963.13
2022-11-05T06:28:35.654Z,100963.19
2022-11-05T06:31:03.764Z,100961.63
2022-11-05T06:33:31.235Z,100969.44
2022-11-05T06:36:01.611Z,100974.63
2022-11-05T06:38:29.990Z,100981.41
2022-11-05T06:40:59.405Z,100975.50
2022-11-05T06:43:26.848Z,100994.28
2022-11-05T06:45:54.507Z,100995.88
2022-11-05T06:48:22.119Z,101000.28
2022-11-05T06:50:49.594Z,100997.72
2022-11-05T06:53:18.579Z,100994.44
2022-11-05T06:55:47.875Z,100999.41
2022-11-05T06:58:15.561Z,100999.63
2022-11-05T07:00:43.106Z,101006.44
2022-11-05T07:03:12.496Z,101009.94
2022-11-05T07:05:43.929Z,101009.81
2022-11-05T07:08:11.519Z,101000.31
2022-11-05T07:10:40.292Z,101018.38
2022-11-05T07:13:08.653Z,101020.25
2022-11-05T07:15:36.564Z,101028.69
2022-11-05T07:18:04.559Z,101031.31
2022-11-05T07:20:34.354Z,101040.75
2022-11-05T07:23:03.638Z,101035.59
2022-11-05T07:25:32.135Z,101042.50
2022-11-05T07:28:01.361Z,101049.34
2022-11-05T07:30:29.578Z,101052.66
2022-11-05T07:32:57.047Z,101057.16
2022-11-05T07:35:24.873Z,101058.81
2022-11-05T07:37:54.746Z,101061.38
2022-11-05T07:40:23.583Z,101062.19
2022-11-05T07:42:52.754Z,101062.59
2022-11-05T07:45:21.804Z,101051.72
2022-11-05T07:47:50.490Z,101051.75
2022-11-05T07:50:19.222Z,101053.66
2022-11-05T07:52:47.887Z,101058.75
2022-11-05T07:55:16.101Z,101058.00
2022-11-05T07:57:44.712Z,101056.09
2022-11-05T08:00:15.016Z,101063.19
2022-11-05T08:02:44.293Z,101066.47
2022-11-05T08:05:11.956Z,101068.13
2022-11-05T08:07:39.391Z,101070.78
2022-11-05T08:10:07.819Z,101077.50
2022-11-05T08:12:35.227Z,101078.44
2022-11-05T08:15:02.903Z,101080.00
2022-11-05T08:17:30.320Z,101076.72
2022-11-05T08:19:59.051Z,101079.41
2022-11-05T08:22:26.543Z,101085.28
2022-11-05T08:24:54.170Z,101093.84
2022-11-05T08:27:21.648Z,101095.84
2022-11-05T08:29:49.081Z,101099.84
2022-11-05T08:32:16.675Z,101097.59
2022-11-05T08:34:44.197Z,101099.25
2022-11-05T08:37:12.970Z,101107.06
2022-11-05T08:39:40.384Z,101109.91
2022-11-05T08:42:07.910Z,101118.44
2022-11-05T08:44:35.351Z,101119.25
2022-11-05T08:47:02.770Z,101119.41
2022-11-05T08:49:30.283Z,101114.25
2022-11-05T08:51:57.696Z,101103.69
2022-11-05T08:54:26.586Z,101096.22
2022-11-05T08:56:54.048Z,101095.50
2022-11-05T08:59:21.695Z,101094.59
2022-11-05T09:01:50.639Z,101097.19
2022-11-05T09:04:18.218Z,101101.50
2022-11-05T09:06:45.882Z,101111.88
2022-11-05T09:09:13.341Z,101110.09
2022-11-05T09:12:10.091Z,101118.78
2022-11-05T09:14:30.286Z,101118.69
2022-11-05T09:16:57.724Z,101123.94
2022-11-05T09:19:25.229Z,101127.44
2022-11-05T09:21:52.901Z,101130.91
2022-11-05T09:24:20.331Z,101132.63
2022-11-05T09:26:49.071Z,101137.81
2022-11-05T09:29:16.573Z,101136.06
2022-11-05T09:31:44.448Z,101138.69
2022-11-05T09:34:11.855Z,101149.69
2022-11-05T09:36:39.482Z,101155.34
2022-11-05T09:39:07.175Z,101159.63
2022-11-05T09:41:40.173Z,101161.22
2022-11-05T09:44:13.969Z,101158.38
2022-11-05T09:46:46.213Z,101159.63
2022-11-05T09:49:24.498Z,101164.22
2022-11-05T09:51:53.415Z,101166.47
2022-11-05T09:54:24.724Z,101165.47
2022-11-05T09:56:53.583Z,101177.25
2022-11-05T09:59:25.383Z,101169.56
2022-11-05T10:01:58.694Z,101167.13
2022-11-05T10:04:28.456Z,101166.53
2022-11-05T10:06:59.324Z,101175.97
2022-11-05T10:09:31.293Z,101176.16
2022-11-05T10:12:06.282Z,101179.19
2022-11-05T10:14:40.744Z,101176.56
2022-11-05T10:17:21.053Z,101183.56
2022-11-05T10:19:52.590Z,101178.56
2022-11-05T10:22:21.702Z,101180.09
2022-11-05T10:24:51.459Z,101180.06
2022-11-05T10:27:23.224Z,101178.09
2022-11-05T10:29:53.147Z,101184.38
2022-11-05T10:32:28.956Z,101191.47
2022-11-05T10:34:59.318Z,101187.50
2022-11-05T10:37:27.931Z,101185.41
2022-11-05T10:39:55.762Z,101191.91
2022-11-05T10:42:39.518Z,101192.34
2022-11-05T10:45:18.444Z,101192.16
2022-11-05T10:47:56.111Z,101195.63
2022-11-05T10:50:26.472Z,101208.97
2022-11-05T10:52:58.880Z,101202.38
2022-11-05T10:55:30.024Z,101213.41
2022-11-05T10:58:09.131Z,101204.25
2022-11-05T11:00:38.434Z,101205.50
2022-11-05T11:03:34.887Z,101215.06
2022-11-05T11:06:04.959Z,101209.72
2022-11-05T11:08:36.339Z,101217.75
2022-11-05T11:11:07.668Z,101212.59
2022-11-05T11:13:51.261Z,101205.91
2022-11-05T11:16:23.642Z,101211.34
2022-11-05T11:18:54.764Z,101214.31
2022-11-05T11:21:24.180Z,101219.66
2022-11-05T11:23:56.475Z,101201.94
2022-11-05T11:26:26.043Z,101208.16
2022-11-05T11:29:01.093Z,101204.81
2022-11-05T11:31:32.557Z,101205.50
2022-11-05T11:34:04.012Z,101198.78
2022-11-05T11:36:35.866Z,101211.66
2022-11-05T11:39:07.886Z,101211.47
2022-11-05T11:41:38.763Z,101214.66
2022-11-05T11:44:11.850Z,101222.97
2022-11-05T11:46:40.943Z,101213.00
2022-11-05T11:49:28.373Z,101220.28
2022-11-05T11:52:01.754Z,101222.06
2022-11-05T11:54:34.437Z,101232.75
2022-11-05T11:57:04.341Z,101224.94
2022-11-05T12:00:01.750Z,101230.59
2022-11-05T12:02:47.945Z,101220.25
2022-11-05T12:05:29.591Z,101218.13
2022-11-05T12:08:02.111Z,101216.66
2022-11-05T12:10:44.991Z,101225.63
2022-11-05T12:13:45.405Z,101224.97
2022-11-05T12:16:21.555Z,101223.03
2022-11-05T12:18:58.220Z,101216.66
2022-11-05T12:21:52.104Z,101209.72
2022-11-05T12:24:58.792Z,101204.59
2022-11-05T12:27:47.163Z,101208.13
2022-11-05T12:30:17.083Z,101219.09
2022-11-05T12:33:17.134Z,101220.00
2022-11-05T12:36:04.882Z,101218.41
2022-11-05T12:38:49.599Z,101219.34
2022-11-05T12:41:25.737Z,101216.94
2022-11-05T12:44:12.357Z,101217.13
2022-11-05T12:46:51.099Z,101216.91
2022-11-05T12:49:43.847Z,101213.13
2022-11-05T12:52:34.674Z,101223.25
2022-11-05T12:55:06.298Z,101220.94
2022-11-05T12:57:37.419Z,101216.63
2022-11-05T13:00:09.094Z,101210.97
2022-11-05T13:02:41.669Z,101213.41
2022-11-05T13:05:16.336Z,101217.13
2022-11-05T13:07:54.244Z,101215.72
2022-11-05T13:10:28.960Z,101211.84
2022-11-05T13:13:04.690Z,101216.94
2022-11-05T13:15:38.600Z,101217.84
2022-11-05T13:18:12.519Z,101222.13
2022-11-05T13:20:45.753Z,101227.47
2022-11-05T13:23:24.061Z,101224.00
2022-11-05T13:25:56.712Z,101216.09
2022-11-05T13:28:36.431Z,101225.94
2022-11-05T13:31:10.797Z,101231.78
2022-11-05T13:33:43.266Z,101235.22
2022-11-05T13:36:33.010Z,101234.59
2022-11-05T13:39:09.397Z,101242.91
2022-11-05T13:41:53.152Z,101238.94
2022-11-05T13:44:35.284Z,101251.72
2022-11-05T13:47:28.019Z,101249.19
2022-11-05T13:50:30.921Z,101249.50
2022-11-05T13:53:25.772Z,101253.84
2022-11-05T13:56:05.782Z,101253.00
2022-11-05T13:58:48.258Z,101251.22
2022-11-05T14:01:34.110Z,101245.91
2022-11-05T14:04:01.856Z,101247.50
2022-11-05T14:06:32.670Z,101244.34
2022-11-05T14:09:03.166Z,101249.69
2022-11-05T14:11:35.817Z,101262.31
2022-11-05T14:14:06.888Z,101272.25
2022-11-05T14:16:52.509Z,101276.72
2022-11-05T14:19:36.868Z,101274.28
2022-11-05T14:22:39.040Z,101281.81
2022-11-05T14:25:43.993Z,101272.59
2022-11-05T14:28:41.529Z,101273.41
2022-11-05T14:31:47.259Z,101272.50
2022-11-05T14:34:21.815Z,101265.00
2022-11-05T14:37:15.297Z,101255.00
2022-11-05T14:39:43.910Z,101261.81
2022-11-05T14:42:13.690Z,101254.19
2022-11-05T14:47:38.802Z,101271.50
2022-11-05T14:50:11.948Z,101265.38
2022-11-05T14:52:41.420Z,101267.94
2022-11-05T14:55:26.439Z,101279.91
2022-11-05T14:58:24.647Z,101279.00
2022-11-05T15:00:52.857Z,101272.16
2022-11-05T15:03:34.744Z,101272.84
2022-11-05T15:06:20.911Z,101292.13
2022-11-05T15:09:16.428Z,101285.78
2022-11-05T15:11:50.966Z,101284.19
2022-11-05T15:14:25.674Z,101300.91
2022-11-05T15:16:55.613Z,101290.78
2022-11-05T15:19:30.016Z,101285.09
2022-11-05T15:21:59.773Z,101295.22
2022-11-05T15:24:28.995Z,101299.25
2022-11-05T15:27:03.754Z,101297.44
2022-11-05T15:29:33.718Z,101294.25
2022-11-05T15:32:01.652Z,101302.63
2022-11-05T15:34:32.349Z,101302.88
2022-11-05T15:37:02.079Z,101308.09
2022-11-05T15:39:39.300Z,101306.13
2022-11-05T15:42:12.582Z,101313.97
2022-11-05T15:44:42.469Z,101310.38
2022-11-05T15:47:16.195Z,101318.97
2022-11-05T15:49:47.778Z,101316.53
2022-11-05T15:52:18.083Z,101311.25
2022-11-05T15:54:45.813Z,101307.78
2022-11-05T15:57:22.249Z,101312.06
2022-11-05T15:59:50.133Z,101316.41
2022-11-05T16:02:26.782Z,101313.78
2022-11-05T16:04:56.172Z,101315.38
2022-11-05T16:07:24.397Z,101319.63
2022-11-05T16:09:54.263Z,101319.66
2022-11-05T16:12:30.948Z,101316.19
2022-11-05T16:15:00.554Z,101316.19
2022-11-05T16:17:31.639Z,101318.00
2022-11-05T16:20:00.802Z,101321.38
2022-11-05T16:22:46.358Z,101320.44
2022-11-05T16:25:26.893Z,101317.22
2022-11-05T16:27:54.511Z,101317.88
2022-11-05T16:30:22.783Z,101321.41
2022-11-05T16:32:50.629Z,101312.91
2022-11-05T16:35:22.630Z,101320.69
2022-11-05T16:37:52.393Z,101328.13
2022-11-05T16:40:22.735Z,101322.19
2022-11-05T16:42:52.150Z,101328.25
2022-11-05T16:45:21.451Z,101333.38
2022-11-05T16:47:49.495Z,101333.47
2022-11-05T16:50:21.830Z,101338.63
2022-11-05T16:52:49.336Z,101349.72
2022-11-05T16:55:17.923Z,101345.19
2022-11-05T16:57:48.878Z,101343.53
2022-11-05T17:00:18.911Z,101352.50
2022-11-05T17:02:46.658Z,101358.84
2022-11-05T17:05:20.814Z,101350.38
2022-11-05T17:07:48.470Z,101355.50
2022-11-05T17:10:16.346Z,101372.88
2022-11-05T17:12:44.388Z,101377.75
2022-11-05T17:15:18.502Z,101386.44
2022-11-05T17:17:46.314Z,101382.25
2022-11-05T17:20:25.255Z,101383.72
2022-11-05T17:22:54.390Z,101385.16
2022-11-05T17:25:21.825Z,101389.66
2022-11-05T17:27:49.508Z,101397.06
2022-11-05T17:30:17.340Z,101401.25
2022-11-05T17:32:45.249Z,101403.13
2022-11-05T17:35:12.962Z,101399.09
2022-11-05T17:37:40.604Z,101396.94
2022-11-05T17:40:14.810Z,101398.94
2022-11-05T17:42:42.707Z,101403.78
2022-11-05T17:45:11.581Z,101408.94
2022-11-05T17:47:39.658Z,101404.66
2022-11-05T17:50:09.245Z,101414.53
2022-11-05T17:52:36.912Z,101413.34
2022-11-05T17:55:05.396Z,101416.94
2022-11-05T17:57:34.207Z,101414.75
2022-11-05T18:00:01.713Z,101413.00
2022-11-05T18:02:29.575Z,101415.56
2022-11-05T18:04:57.164Z,101418.47
2022-11-05T18:07:27.607Z,101414.22
2022-11-05T18:09:55.050Z,101418.22
2022-11-05T18:12:22.841Z,101414.81
2022-11-05T18:14:51.728Z,101417.38
2022-11-05T18:17:19.195Z,101414.06
2022-11-05T18:19:46.647Z,101416.47
2022-11-05T18:22:15.720Z,101415.00
2022-11-05T18:24:43.156Z,101411.47
2022-11-05T18:27:11.329Z,101412.34
2022-11-05T18:29:39.034Z,101401.06
2022-11-05T18:32:07.861Z,101411.31
2022-11-05T18:34:35.931Z,101404.34
2022-11-05T18:37:03.471Z,101400.94
2022-11-05T18:39:30.954Z,101400.00
2022-11-05T18:41:58.377Z,101402.53
2022-11-05T18:44:25.978Z,101404.38
2022-11-05T18:46:58.480Z,101404.34
2022-11-05T18:49:28.108Z,101400.91
2022-11-05T18:51:55.602Z,101411.94
2022-11-05T18:54:23.008Z,101409.50
2022-11-05T18:56:50.370Z,101407.78
2022-11-05T18:59:36.675Z,101407.81
2022-11-05T19:02:06.283Z,101411.38
2022-11-05T19:04:35.864Z,101413.88
2022-11-05T19:07:05.526Z,101411.84
2022-11-05T19:09:33.693Z,101421.38
2022-11-05T19:12:01.877Z,101422.31
2022-11-05T19:14:30.085Z,101412.75
2022-11-05T19:16:57.821Z,101409.19
2022-11-05T19:19:25.640Z,101417.22
2022-11-05T19:21:54.563Z,101414.25
2022-11-05T19:24:22.068Z,101416.03
2022-11-05T19:26:50.339Z,101413.22
2022-11-05T19:29:17.827Z,101424.66
2022-11-05T19:31:46.869Z,101422.81
2022-11-05T19:34:14.750Z,101419.09
2022-11-05T19:36:43.215Z,101430.88
2022-11-05T19:39:15.979Z,101428.41
2022-11-05T19:41:43.582Z,101422.81
2022-11-05T19:44:11.130Z,101418.47
2022-11-05T19:46:38.637Z,101419.69
2022-11-05T19:49:06.061Z,101422.19
2022-11-05T19:51:34.371Z,101422.50
2022-11-05T19:54:03.379Z,101420.34
2022-11-05T19:56:34.325Z,101422.88
2022-11-05T19:59:03.236Z,101413.53
2022-11-05T20:01:31.776Z,101412.47
2022-11-05T20:03:59.926Z,101421.91
2022-11-05T20:06:31.959Z,101417.66
2022-11-05T20:11:50.996Z,101424.94
2022-11-05T20:14:18.412Z,101424.34
2022-11-05T20:16:46.369Z,101432.22
2022-11-05T20:19:16.345Z,101431.19
2022-11-05T20:21:44.413Z,101435.13
2022-11-05T20:24:17.438Z,101436.13
2022-11-05T20:26:51.153Z,101441.88
2022-11-05T20:29:18.627Z,101442.28
2022-11-05T20:31:46.110Z,101455.66
2022-11-05T20:34:16.359Z,101454.13
2022-11-05T20:36:43.763Z,101452.19
2022-11-05T20:39:14.278Z,101452.34
2022-11-05T20:41:41.834Z,101449.53
2022-11-05T20:44:11.832Z,101455.63
2022-11-05T20:46:39.233Z,101451.50
2022-11-05T20:49:06.702Z,101450.41
2022-11-05T20:51:34.231Z,101453.53
2022-11-05T20:54:02.775Z,101450.00
2022-11-05T20:56:32.839Z,101443.97
2022-11-05T20:59:01.516Z,101442.16
2022-11-05T21:01:33.167Z,101453.25
2022-11-05T21:04:00.742Z,101463.47
2022-11-05T21:06:28.264Z,101455.06
2022-11-05T21:08:56.049Z,101458.47
2022-11-05T21:11:23.888Z,101460.84
2022-11-05T21:13:51.433Z,101460.22
2022-11-05T21:16:20.372Z,101467.22
2022-11-05T21:18:49.953Z,101472.25
2022-11-05T21:21:20.318Z,101474.94
2022-11-05T21:23:48.175Z,101481.59
2022-11-05T21:26:16.754Z,101473.19
2022-11-05T21:28:44.568Z,101473.28
2022-11-05T21:31:12.200Z,101472.66
2022-11-05T21:33:40.376Z,101470.16
2022-11-05T21:36:11.755Z,101461.94
2022-11-05T21:38:39.996Z,101461.38
2022-11-05T21:41:08.123Z,101456.81
2022-11-05T21:43:35.858Z,101456.81
2022-11-05T21:46:04.819Z,101463.41
2022-11-05T21:48:33.218Z,101455.69
2022-11-05T21:51:18.293Z,101455.94
2022-11-05T21:54:05.201Z,101460.34
2022-11-05T21:56:51.123Z,101449.97
2022-11-05T21:59:39.034Z,101455.47
2022-11-05T22:02:07.757Z,101457.59
2022-11-05T22:04:37.576Z,101453.72
2022-11-05T22:07:06.079Z,101452.75
2022-11-05T22:09:35.354Z,101452.69
2022-11-05T22:12:05.403Z,101451.78
2022-11-05T22:14:37.388Z,101447.59
2022-11-05T22:17:05.923Z,101461.66
2022-11-05T22:19:33.631Z,101448.06
2022-11-05T22:22:01.224Z,101440.59
2022-11-05T22:24:30.554Z,101452.50
2022-11-05T22:26:59.695Z,101452.88
2022-11-05T22:29:27.586Z,101453.91
2022-11-05T22:31:55.630Z,101457.28
2022-11-05T22:34:23.023Z,101453.88
2022-11-05T22:36:50.752Z,101446.41
2022-11-05T22:39:18.336Z,101451.22
2022-11-05T22:41:46.085Z,101440.66
2022-11-05T22:44:16.684Z,101445.16
2022-11-05T22:46:44.354Z,101445.72
2022-11-05T22:49:12.038Z,101439.31
2022-11-05T22:51:40.929Z,101448.41
2022-11-05T22:54:08.744Z,101439.56
2022-11-05T22:56:38.632Z,101459.25
2022-11-05T22:59:07.374Z,101467.59
2022-11-05T23:01:36.774Z,101460.91
2022-11-05T23:04:04.322Z,101459.38
2022-11-05T23:06:50.822Z,101454.19
2022-11-05T23:09:38.310Z,101457.31
2022-11-05T23:12:08.975Z,101456.97
2022-11-05T23:14:37.166Z,101463.75
2022-11-05T23:17:23.966Z,101444.31
2022-11-05T23:20:08.834Z,101435.44
2022-11-05T23:22:53.856Z,101428.75
2022-11-05T23:25:23.590Z,101421.47
2022-11-05T23:27:52.975Z,101424.13
2022-11-05T23:30:22.749Z,101428.91
2022-11-05T23:32:51.237Z,101426.41
2022-11-05T23:35:39.145Z,101421.56
2022-11-05T23:38:24.553Z,101425.78
2022-11-05T23:41:09.547Z,101412.13
2022-11-05T23:43:54.417Z,101410.38
2022-11-05T23:46:39.279Z,101424.34
2022-11-05T23:49:08.095Z,101436.34
2022-11-05T23:51:35.483Z,101435.81
2022-11-05T23:54:02.902Z,101439.84
2022-11-05T23:56:31.881Z,101445.88
2022-11-05T23:58:59.495Z,101451.03
